createdAt,value
2018-07-15T00:00:50.575Z,3.17
2018-07-15T00:03:17.876Z,3.77
2018-07-15T00:05:45.266Z,3.10
2018-07-15T00:08:12.669Z,3.23
2018-07-15T00:10:39.980Z,3.20
2018-07-15T00:13:07.298Z,3.43
2018-07-15T00:15:34.751Z,4.80
2018-07-15T00:18:02.060Z,3.97
2018-07-15T00:20:29.540Z,3.80
2018-07-15T00:22:56.871Z,3.83
2018-07-15T00:25:24.219Z,2.90
2018-07-15T00:27:51.599Z,3.73
2018-07-15T00:30:18.947Z,4.00
2018-07-15T00:32:46.284Z,4.10
2018-07-15T00:35:13.654Z,3.90
2018-07-15T00:37:41.032Z,3.73
2018-07-15T00:40:08.599Z,5.53
2018-07-15T00:42:36.027Z,3.57
2018-07-15T00:45:03.350Z,3.40
2018-07-15T00:47:30.731Z,4.83
2018-07-15T00:49:58.292Z,4.13
2018-07-15T00:52:25.642Z,5.27
2018-07-15T00:54:52.947Z,5.00
2018-07-15T00:57:20.344Z,4.20
2018-07-15T00:59:47.675Z,3.97
2018-07-15T01:02:15.064Z,3.73
2018-07-15T01:04:42.399Z,5.47
2018-07-15T01:07:09.874Z,4.67
2018-07-15T01:09:37.212Z,4.57
2018-07-15T01:12:04.551Z,5.03
2018-07-15T01:14:32.072Z,4.13
2018-07-15T01:16:59.471Z,5.00
2018-07-15T01:19:26.804Z,4.77
2018-07-15T01:21:54.142Z,4.77
2018-07-15T01:24:21.463Z,4.63
2018-07-15T01:26:48.806Z,4.20
2018-07-15T01:29:16.346Z,5.43
2018-07-15T01:31:44.238Z,7.50
2018-07-15T01:34:11.555Z,4.87
2018-07-15T01:36:38.884Z,4.97
2018-07-15T01:39:06.188Z,4.10
2018-07-15T01:41:33.623Z,3.77
2018-07-15T01:44:00.927Z,4.50
2018-07-15T01:46:28.459Z,4.37
2018-07-15T01:48:55.804Z,5.73
2018-07-15T01:51:23.180Z,4.80
2018-07-15T01:53:50.504Z,7.57
2018-07-15T01:56:17.882Z,5.13
2018-07-15T01:58:45.251Z,3.83
2018-07-15T02:01:12.597Z,3.97
2018-07-15T02:03:40.019Z,4.73
2018-07-15T02:06:07.414Z,5.20
2018-07-15T02:08:34.727Z,8.63
2018-07-15T02:11:02.097Z,4.73
2018-07-15T02:13:29.548Z,5.27
2018-07-15T02:15:56.919Z,5.33
2018-07-15T02:18:24.348Z,5.07
2018-07-15T02:20:51.671Z,4.90
2018-07-15T02:23:19.032Z,5.20
2018-07-15T02:25:46.416Z,5.30
2018-07-15T02:28:13.816Z,4.17
2018-07-15T02:30:41.134Z,5.07
2018-07-15T02:33:08.600Z,5.40
2018-07-15T02:35:35.940Z,7.13
2018-07-15T02:38:03.323Z,5.53
2018-07-15T02:40:30.630Z,6.20
2018-07-15T02:42:58.006Z,5.40
2018-07-15T02:45:25.322Z,5.83
2018-07-15T02:47:52.652Z,5.00
2018-07-15T02:50:19.981Z,5.47
2018-07-15T02:52:47.287Z,5.43
2018-07-15T02:55:14.695Z,4.80
2018-07-15T02:57:42.023Z,5.20
2018-07-15T03:00:09.515Z,6.20
2018-07-15T03:02:36.847Z,6.00
2018-07-15T03:05:04.297Z,5.50
2018-07-15T03:07:31.679Z,5.03
2018-07-15T03:09:59.024Z,5.20
2018-07-15T03:12:26.553Z,5.70
2018-07-15T03:14:53.879Z,5.63
2018-07-15T03:17:21.266Z,5.73
2018-07-15T03:19:48.733Z,10.17
2018-07-15T03:22:16.099Z,5.50
2018-07-15T03:24:43.438Z,5.70
2018-07-15T03:27:10.798Z,5.20
2018-07-15T03:29:38.235Z,5.73
2018-07-15T03:32:05.639Z,6.20
2018-07-15T03:34:32.973Z,6.10
2018-07-15T03:37:00.297Z,6.20
2018-07-15T03:39:27.745Z,7.60
2018-07-15T03:41:55.124Z,6.40
2018-07-15T03:44:22.488Z,6.10
2018-07-15T03:46:49.932Z,5.93
2018-07-15T03:49:17.264Z,6.70
2018-07-15T03:51:44.651Z,7.20
2018-07-15T03:54:12.001Z,6.50
2018-07-15T03:56:39.330Z,6.80
2018-07-15T03:59:06.914Z,7.03
2018-07-15T04:01:34.464Z,6.77
2018-07-15T04:04:01.803Z,5.97
2018-07-15T04:06:29.361Z,6.73
2018-07-15T04:08:56.760Z,7.00
2018-07-15T04:11:24.295Z,6.20
2018-07-15T04:13:51.643Z,6.93
2018-07-15T04:16:19.107Z,7.27
2018-07-15T04:18:46.468Z,6.63
2018-07-15T04:21:13.815Z,6.50
2018-07-15T04:23:41.178Z,7.47
2018-07-15T04:26:08.642Z,6.80
2018-07-15T04:28:36.097Z,6.60
2018-07-15T04:31:03.523Z,6.87
2018-07-15T04:33:30.841Z,7.40
2018-07-15T04:35:58.132Z,6.83
2018-07-15T04:38:25.475Z,7.77
2018-07-15T04:40:52.943Z,6.80
2018-07-15T04:43:20.316Z,6.73
2018-07-15T04:45:47.659Z,6.57
2018-07-15T04:48:14.986Z,6.90
2018-07-15T04:50:42.498Z,7.10
2018-07-15T04:53:09.843Z,7.00
2018-07-15T04:55:37.179Z,7.67
2018-07-15T04:58:04.541Z,7.43
2018-07-15T05:00:32.039Z,7.67
2018-07-15T05:02:59.438Z,8.87
2018-07-15T05:05:26.748Z,7.63
2018-07-15T05:07:54.082Z,8.07
2018-07-15T05:10:21.393Z,7.03
2018-07-15T05:12:48.774Z,9.20
2018-07-15T05:15:16.127Z,7.67
2018-07-15T05:17:43.491Z,7.90
2018-07-15T05:20:10.840Z,8.93
2018-07-15T05:22:38.276Z,9.10
2018-07-15T05:25:05.682Z,7.60
2018-07-15T05:27:33.010Z,10.03
2018-07-15T05:30:00.440Z,9.07
2018-07-15T05:32:27.936Z,9.13
2018-07-15T05:34:55.367Z,8.20
2018-07-15T05:37:22.695Z,9.53
2018-07-15T05:39:50.068Z,7.80
2018-07-15T05:42:17.418Z,8.67
2018-07-15T05:44:44.759Z,9.13
2018-07-15T05:47:12.099Z,7.60
2018-07-15T05:49:39.410Z,8.27
2018-07-15T05:52:06.764Z,10.40
2018-07-15T05:54:34.100Z,7.43
2018-07-15T05:57:01.427Z,8.10
2018-07-15T05:59:28.742Z,8.00
2018-07-15T06:01:56.130Z,7.57
2018-07-15T06:04:23.453Z,7.53
2018-07-15T06:06:51.279Z,7.00
2018-07-15T06:09:18.587Z,7.47
2018-07-15T06:11:45.999Z,7.30
2018-07-15T06:14:13.308Z,8.50
2018-07-15T06:16:40.872Z,6.60
2018-07-15T06:19:08.377Z,8.67
2018-07-15T06:21:35.718Z,6.97
2018-07-15T06:24:03.064Z,7.40
2018-07-15T06:26:30.431Z,8.70
2018-07-15T06:28:57.851Z,5.97
2018-07-15T06:31:25.207Z,6.60
2018-07-15T06:33:52.535Z,7.20
2018-07-15T06:36:19.940Z,6.60
2018-07-15T06:38:47.487Z,6.47
2018-07-15T06:41:14.819Z,6.40
2018-07-15T06:43:42.259Z,5.70
2018-07-15T06:46:09.574Z,6.20
2018-07-15T06:48:36.914Z,9.20
2018-07-15T06:51:04.402Z,5.63
2018-07-15T06:53:31.795Z,4.83
2018-07-15T06:55:59.228Z,7.00
2018-07-15T06:58:26.564Z,4.63
2018-07-15T07:00:53.979Z,5.20
2018-07-15T07:03:21.323Z,6.13
2018-07-15T07:05:48.717Z,5.80
2018-07-15T07:08:16.058Z,4.67
2018-07-15T07:10:43.414Z,4.97
2018-07-15T07:13:10.891Z,3.80
2018-07-15T07:15:38.550Z,4.37
2018-07-15T07:18:06.120Z,3.70
2018-07-15T07:20:33.684Z,3.90
2018-07-15T07:23:01.096Z,3.10
2018-07-15T07:25:28.467Z,3.30
2018-07-15T07:27:55.835Z,3.47
2018-07-15T07:30:23.176Z,5.50
2018-07-15T07:32:50.648Z,4.00
2018-07-15T07:35:18.274Z,2.90
2018-07-15T07:37:45.712Z,3.50
2018-07-15T07:40:13.062Z,3.70
2018-07-15T07:42:40.422Z,2.80
2018-07-15T07:45:07.927Z,3.20
2018-07-15T07:47:35.274Z,3.40
2018-07-15T07:50:02.746Z,3.77
2018-07-15T07:52:30.247Z,3.77
2018-07-15T07:54:57.732Z,2.90
2018-07-15T07:57:25.087Z,2.63
2018-07-15T07:59:52.487Z,3.10
2018-07-15T08:02:19.811Z,2.87
2018-07-15T08:04:47.440Z,2.50
2018-07-15T08:07:14.988Z,3.00
2018-07-15T08:09:42.304Z,2.80
2018-07-15T08:12:09.703Z,2.77
2018-07-15T08:14:37.210Z,2.50
2018-07-15T08:17:04.590Z,2.80
2018-07-15T08:19:32.015Z,2.30
2018-07-15T08:21:59.382Z,2.50
2018-07-15T08:24:26.704Z,2.20
2018-07-15T08:26:54.138Z,2.60
2018-07-15T08:29:21.516Z,2.90
2018-07-15T08:31:48.979Z,2.83
2018-07-15T08:34:16.423Z,2.67
2018-07-15T08:36:43.903Z,2.73
2018-07-15T08:39:11.259Z,2.77
2018-07-15T08:41:38.721Z,2.67
2018-07-15T08:44:06.065Z,2.27
2018-07-15T08:46:33.527Z,1.73
2018-07-15T08:49:00.971Z,2.27
2018-07-15T08:51:28.444Z,1.90
2018-07-15T08:53:55.766Z,4.50
2018-07-15T08:56:23.107Z,2.00
2018-07-15T08:58:50.494Z,2.90
2018-07-15T09:01:18.026Z,2.40
2018-07-15T09:03:45.418Z,3.50
2018-07-15T09:06:12.935Z,2.80
2018-07-15T09:08:40.443Z,2.47
2018-07-15T09:11:07.960Z,2.03
2018-07-15T09:13:35.363Z,2.30
2018-07-15T09:16:02.805Z,2.27
2018-07-15T09:18:30.138Z,2.40
2018-07-15T09:20:57.691Z,2.80
2018-07-15T09:23:25.042Z,1.90
2018-07-15T09:25:52.929Z,2.23
2018-07-15T09:28:20.275Z,2.40
2018-07-15T09:30:47.827Z,2.00
2018-07-15T09:33:15.275Z,2.33
2018-07-15T09:35:42.704Z,3.00
2018-07-15T09:38:10.093Z,2.90
2018-07-15T09:40:37.472Z,2.83
2018-07-15T09:43:04.939Z,2.80
2018-07-15T09:45:32.281Z,5.60
2018-07-15T09:47:59.850Z,2.40
2018-07-15T09:50:27.184Z,2.80
2018-07-15T09:52:54.536Z,2.93
2018-07-15T09:55:21.868Z,3.10
2018-07-15T09:57:49.347Z,2.00
2018-07-15T10:00:22.044Z,3.13
2018-07-15T10:02:49.417Z,1.90
2018-07-15T10:05:17.021Z,5.07
2018-07-15T10:07:44.415Z,4.20
2018-07-15T10:10:11.937Z,2.13
2018-07-15T10:12:39.312Z,2.13
2018-07-15T10:15:06.668Z,2.23
2018-07-15T10:17:34.309Z,3.00
2018-07-15T10:20:01.699Z,2.20
2018-07-15T10:22:29.130Z,2.90
2018-07-15T10:24:56.623Z,1.93
2018-07-15T10:27:24.047Z,1.90
2018-07-15T10:29:51.432Z,3.30
2018-07-15T10:32:18.770Z,2.90
2018-07-15T10:34:46.160Z,2.07
2018-07-15T10:37:13.512Z,2.07
2018-07-15T10:39:40.952Z,2.10
2018-07-15T10:42:08.513Z,2.70
2018-07-15T10:44:35.841Z,2.50
2018-07-15T10:47:03.212Z,4.90
2018-07-15T10:49:30.641Z,1.63
2018-07-15T10:51:57.986Z,1.63
2018-07-15T10:54:25.334Z,1.80
2018-07-15T10:56:52.691Z,2.43
2018-07-15T10:59:20.063Z,1.90
2018-07-15T11:01:47.609Z,1.60
2018-07-15T11:04:15.089Z,4.03
2018-07-15T11:06:42.521Z,2.47
2018-07-15T11:09:09.964Z,1.50
2018-07-15T11:11:37.460Z,1.70
2018-07-15T11:14:05.003Z,1.77
2018-07-15T11:16:32.595Z,1.90
2018-07-15T11:18:59.951Z,1.93
2018-07-15T11:21:27.268Z,2.40
2018-07-15T11:23:56.018Z,1.60
2018-07-15T11:26:23.326Z,1.57
2018-07-15T11:28:50.972Z,4.70
2018-07-15T11:31:18.331Z,1.90
2018-07-15T11:33:45.885Z,2.50
2018-07-15T11:36:13.225Z,2.60
2018-07-15T11:38:40.579Z,2.00
2018-07-15T11:41:08.157Z,1.50
2018-07-15T11:43:35.503Z,4.83
2018-07-15T11:46:03.053Z,1.60
2018-07-15T11:48:30.570Z,1.93
2018-07-15T11:50:57.916Z,1.50
2018-07-15T11:53:25.247Z,2.03
2018-07-15T11:55:53.625Z,2.20
2018-07-15T11:58:21.148Z,2.10
2018-07-15T12:00:48.704Z,2.03
2018-07-15T12:03:16.312Z,2.37
2018-07-15T12:05:44.488Z,1.70
2018-07-15T12:08:12.016Z,9.70
2018-07-15T12:10:39.451Z,2.13
2018-07-15T12:13:06.825Z,1.50
2018-07-15T12:15:34.188Z,2.90
2018-07-15T12:18:01.517Z,4.70
2018-07-15T12:20:28.911Z,2.40
2018-07-15T12:22:56.260Z,3.00
2018-07-15T12:25:23.574Z,4.00
2018-07-15T12:27:51.065Z,2.27
2018-07-15T12:30:18.505Z,2.20
2018-07-15T12:32:45.864Z,1.33
2018-07-15T12:35:13.233Z,1.60
2018-07-15T12:37:40.631Z,2.40
2018-07-15T12:40:07.953Z,1.90
2018-07-15T12:42:35.252Z,1.60
2018-07-15T12:45:02.550Z,2.00
2018-07-15T12:47:29.996Z,2.53
2018-07-15T12:49:57.566Z,1.70
2018-07-15T12:52:25.036Z,1.37
2018-07-15T12:54:52.450Z,3.73
2018-07-15T12:57:19.794Z,2.13
2018-07-15T12:59:47.197Z,1.57
2018-07-15T13:02:14.703Z,1.70
2018-07-15T13:04:42.139Z,2.43
2018-07-15T13:07:09.503Z,1.50
2018-07-15T13:09:37.009Z,1.57
2018-07-15T13:12:04.455Z,1.73
2018-07-15T13:14:31.926Z,2.60
2018-07-15T13:16:59.382Z,2.40
2018-07-15T13:19:26.716Z,2.13
2018-07-15T13:21:54.175Z,2.00
2018-07-15T13:24:21.568Z,3.87
2018-07-15T13:26:48.875Z,3.73
2018-07-15T13:29:16.328Z,2.70
2018-07-15T13:31:43.813Z,1.50
2018-07-15T13:34:11.160Z,2.00
2018-07-15T13:36:38.679Z,2.20
2018-07-15T13:39:06.669Z,1.63
2018-07-15T13:41:34.046Z,2.03
2018-07-15T13:44:01.378Z,1.77
2018-07-15T13:46:28.923Z,1.20
2018-07-15T13:48:56.266Z,1.43
2018-07-15T13:51:23.722Z,1.73
2018-07-15T13:53:51.164Z,2.43
2018-07-15T13:56:18.760Z,2.23
2018-07-15T13:58:46.328Z,1.53
2018-07-15T14:01:13.794Z,1.63
2018-07-15T14:03:41.204Z,1.63
2018-07-15T14:06:08.596Z,2.80
2018-07-15T14:08:35.940Z,1.30
2018-07-15T14:11:03.379Z,1.20
2018-07-15T14:16:04.576Z,1.80
2018-07-15T14:18:32.033Z,3.27
2018-07-15T14:20:59.403Z,1.30
2018-07-15T14:23:26.741Z,1.00
2018-07-15T14:25:54.148Z,2.20
2018-07-15T14:28:21.549Z,1.13
2018-07-15T14:30:48.906Z,1.00
2018-07-15T14:33:16.262Z,1.83
2018-07-15T14:35:43.611Z,1.77
2018-07-15T14:38:11.060Z,1.40
2018-07-15T14:40:38.404Z,1.13
2018-07-15T14:43:05.928Z,1.10
2018-07-15T14:45:34.852Z,1.40
2018-07-15T14:48:02.171Z,1.10
2018-07-15T14:50:29.543Z,1.40
2018-07-15T14:52:57.224Z,1.80
2018-07-15T14:55:24.598Z,1.50
2018-07-15T14:57:51.924Z,2.17
2018-07-15T15:00:20.152Z,4.30
2018-07-15T15:02:47.608Z,2.10
2018-07-15T15:05:15.172Z,2.63
2018-07-15T15:07:42.806Z,3.30
2018-07-15T15:10:10.313Z,3.30
2018-07-15T15:12:37.927Z,2.33
2018-07-15T15:15:05.489Z,2.23
2018-07-15T15:17:32.859Z,2.40
2018-07-15T15:20:00.191Z,2.10
2018-07-15T15:22:27.506Z,2.80
2018-07-15T15:24:55.069Z,3.17
2018-07-15T15:27:22.525Z,2.67
2018-07-15T15:29:50.063Z,1.97
2018-07-15T15:32:17.488Z,2.93
2018-07-15T15:34:44.841Z,2.30
2018-07-15T15:37:12.180Z,2.33
2018-07-15T15:39:39.522Z,1.20
2018-07-15T15:42:07.028Z,1.37
2018-07-15T15:44:34.418Z,1.20
2018-07-15T15:47:01.781Z,1.27
2018-07-15T15:49:29.134Z,1.50
2018-07-15T15:51:56.475Z,0.93
2018-07-15T15:54:23.988Z,1.30
2018-07-15T15:56:51.392Z,1.20
2018-07-15T15:59:18.842Z,1.27
2018-07-15T16:01:46.302Z,1.30
2018-07-15T16:04:13.659Z,0.80
2018-07-15T16:06:41.029Z,1.20
2018-07-15T16:09:09.308Z,2.67
2018-07-15T16:11:36.947Z,1.37
2018-07-15T16:14:04.722Z,2.00
2018-07-15T16:16:32.204Z,1.33
2018-07-15T16:18:59.493Z,0.80
2018-07-15T16:21:26.891Z,1.50
2018-07-15T16:23:54.340Z,2.27
2018-07-15T16:26:21.794Z,1.63
2018-07-15T16:28:49.144Z,0.73
2018-07-15T16:31:16.497Z,1.07
2018-07-15T16:33:43.937Z,0.90
2018-07-15T16:36:11.328Z,1.37
2018-07-15T16:38:38.714Z,1.03
2018-07-15T16:41:05.993Z,1.43
2018-07-15T16:43:33.339Z,1.10
2018-07-15T16:46:00.664Z,1.17
2018-07-15T16:48:28.029Z,0.70
2018-07-15T16:50:55.602Z,1.60
2018-07-15T16:53:23.063Z,1.50
2018-07-15T16:55:50.503Z,1.77
2018-07-15T16:58:17.787Z,1.13
2018-07-15T17:00:45.139Z,0.97
2018-07-15T17:03:12.677Z,0.80
2018-07-15T17:05:39.967Z,1.93
2018-07-15T17:08:07.301Z,3.90
2018-07-15T17:10:34.848Z,1.87
2018-07-15T17:13:02.245Z,2.03
2018-07-15T17:15:29.623Z,1.67
2018-07-15T17:17:56.952Z,0.90
2018-07-15T17:20:24.335Z,0.80
2018-07-15T17:22:51.776Z,1.07
2018-07-15T17:25:19.262Z,2.80
2018-07-15T17:27:46.612Z,0.80
2018-07-15T17:30:14.208Z,1.10
2018-07-15T17:32:41.611Z,1.30
2018-07-15T17:35:09.136Z,1.70
2018-07-15T17:37:37.018Z,1.70
2018-07-15T17:40:04.451Z,1.33
2018-07-15T17:42:32.115Z,1.20
2018-07-15T17:44:59.569Z,1.20
2018-07-15T17:47:26.932Z,2.03
2018-07-15T17:49:54.368Z,0.80
2018-07-15T17:52:21.829Z,2.60
2018-07-15T17:54:49.308Z,1.07
2018-07-15T17:57:16.644Z,0.70
2018-07-15T17:59:44.023Z,1.10
2018-07-15T18:02:11.486Z,2.00
2018-07-15T18:04:38.926Z,2.03
2018-07-15T18:07:06.372Z,1.83
2018-07-15T18:09:33.786Z,1.90
2018-07-15T18:12:01.192Z,3.50
2018-07-15T18:14:29.618Z,1.90
2018-07-15T18:16:57.276Z,1.43
2018-07-15T18:19:24.588Z,3.07
2018-07-15T18:21:51.965Z,0.80
2018-07-15T18:24:19.321Z,3.20
2018-07-15T18:26:46.867Z,5.30
2018-07-15T18:29:14.531Z,1.53
2018-07-15T18:31:42.143Z,1.53
2018-07-15T18:34:09.513Z,1.67
2018-07-15T18:36:37.305Z,0.70
2018-07-15T18:39:05.392Z,1.47
2018-07-15T18:41:33.136Z,1.03
2018-07-15T18:44:00.504Z,3.67
2018-07-15T18:46:27.917Z,3.00
2018-07-15T18:48:55.711Z,2.10
2018-07-15T18:51:23.371Z,1.63
2018-07-15T18:53:50.808Z,3.00
2018-07-15T18:56:18.156Z,1.23
2018-07-15T18:58:45.650Z,1.73
2018-07-15T19:01:13.076Z,1.10
2018-07-15T19:03:40.463Z,1.53
2018-07-15T19:06:08.016Z,1.10
2018-07-15T19:08:35.363Z,5.80
2018-07-15T19:11:02.722Z,0.93
2018-07-15T19:13:30.183Z,1.53
2018-07-15T19:15:57.529Z,3.13
2018-07-15T19:18:24.891Z,1.80
2018-07-15T19:20:52.445Z,1.07
2018-07-15T19:23:19.857Z,1.10
2018-07-15T19:25:47.219Z,3.07
2018-07-15T19:28:14.671Z,2.63
2018-07-15T19:30:42.057Z,4.40
2018-07-15T19:33:09.429Z,1.33
2018-07-15T19:35:37.007Z,3.20
2018-07-15T19:38:04.572Z,10.63
2018-07-15T19:40:32.080Z,0.90
2018-07-15T19:42:59.575Z,5.40
2018-07-15T19:45:27.080Z,1.40
2018-07-15T19:47:54.611Z,3.30
2018-07-15T19:50:21.987Z,2.27
2018-07-15T19:52:49.528Z,1.63
2018-07-15T19:55:16.941Z,2.40
2018-07-15T19:57:44.592Z,2.17
2018-07-15T20:00:12.048Z,2.80
2018-07-15T20:02:39.597Z,3.03
2018-07-15T20:05:07.162Z,1.23
2018-07-15T20:07:34.585Z,1.30
2018-07-15T20:10:02.065Z,2.80
2018-07-15T20:12:29.437Z,1.57
2018-07-15T20:14:56.798Z,1.40
2018-07-15T20:17:24.412Z,2.87
2018-07-15T20:19:51.863Z,1.10
2018-07-15T20:22:19.308Z,1.27
2018-07-15T20:24:46.695Z,1.30
2018-07-15T20:27:14.561Z,1.57
2018-07-15T20:29:42.033Z,3.33
2018-07-15T20:32:09.440Z,1.40
2018-07-15T20:34:36.801Z,2.23
2018-07-15T20:37:04.193Z,1.40
2018-07-15T20:39:31.680Z,2.63
2018-07-15T20:41:59.064Z,1.30
2018-07-15T20:44:26.511Z,1.20
2018-07-15T20:46:53.946Z,2.10
2018-07-15T20:49:21.359Z,2.47
2018-07-15T20:51:48.721Z,1.37
2018-07-15T20:54:16.159Z,2.10
2018-07-15T20:56:43.584Z,2.60
2018-07-15T20:59:11.116Z,3.60
2018-07-15T21:01:38.808Z,1.63
2018-07-15T21:04:06.329Z,2.90
2018-07-15T21:06:35.823Z,3.10
2018-07-15T21:09:03.804Z,2.50
2018-07-15T21:11:31.237Z,2.20
2018-07-15T21:13:58.745Z,1.87
2018-07-15T21:16:26.123Z,1.50
2018-07-15T21:18:53.504Z,1.43
2018-07-15T21:21:20.959Z,1.77
2018-07-15T21:23:48.708Z,4.30
2018-07-15T21:26:16.063Z,1.57
2018-07-15T21:28:43.449Z,1.83
2018-07-15T21:31:10.829Z,2.00
2018-07-15T21:33:38.589Z,2.37
2018-07-15T21:36:06.051Z,4.00
2018-07-15T21:38:33.879Z,5.87
2018-07-15T21:41:01.315Z,2.47
2018-07-15T21:43:28.680Z,2.47
2018-07-15T21:45:56.056Z,3.27
2018-07-15T21:48:23.495Z,2.73
2018-07-15T21:50:50.948Z,2.80
2018-07-15T21:53:18.367Z,2.60
2018-07-15T21:55:45.899Z,2.23
2018-07-15T21:58:13.220Z,4.10
2018-07-15T22:00:40.687Z,2.37
2018-07-15T22:03:08.044Z,2.67
2018-07-15T22:05:35.452Z,2.97
2018-07-15T22:08:08.593Z,1.93
2018-07-15T22:10:40.346Z,1.93
2018-07-15T22:13:07.685Z,1.80
2018-07-15T22:15:35.239Z,2.70
2018-07-15T22:18:02.549Z,2.60
2018-07-15T22:20:30.664Z,5.37
2018-07-15T22:22:58.096Z,2.80
2018-07-15T22:25:25.464Z,2.60
2018-07-15T22:27:53.271Z,2.57
2018-07-15T22:30:20.732Z,2.60
2018-07-15T22:32:48.218Z,3.63
2018-07-15T22:35:15.523Z,2.63
2018-07-15T22:37:42.965Z,2.73
2018-07-15T22:40:10.520Z,3.23
2018-07-15T22:42:37.939Z,2.67
2018-07-15T22:45:05.512Z,3.67
2018-07-15T22:47:32.859Z,2.13
2018-07-15T22:50:00.236Z,2.37
2018-07-15T22:52:27.600Z,2.77
2018-07-15T22:54:55.032Z,6.90
2018-07-15T22:57:22.599Z,3.17
2018-07-15T22:59:50.025Z,1.90
2018-07-15T23:02:17.624Z,2.13
2018-07-15T23:05:50.435Z,2.50
2018-07-15T23:08:18.093Z,2.33
2018-07-15T23:10:45.552Z,3.20
2018-07-15T23:13:13.414Z,2.30
2018-07-15T23:15:41.123Z,2.07
2018-07-15T23:18:08.585Z,2.50
2018-07-15T23:20:36.772Z,2.37
2018-07-15T23:23:05.352Z,3.23
2018-07-15T23:25:33.063Z,3.37
2018-07-15T23:28:01.384Z,1.83
2018-07-15T23:30:29.716Z,2.50
2018-07-15T23:32:57.036Z,4.40
2018-07-15T23:35:24.434Z,2.47
2018-07-15T23:37:51.752Z,1.67
2018-07-15T23:42:54.312Z,2.57
2018-07-15T23:45:22.203Z,1.90
2018-07-15T23:47:49.623Z,2.30
2018-07-15T23:50:16.951Z,2.30
2018-07-15T23:52:44.483Z,2.27
2018-07-15T23:55:12.032Z,2.40
2018-07-15T23:57:39.377Z,2.50
